Airfield :
LOGIN :

Register | Disclaimer

   EN    FR    IT 

 










Legend :    VFR   Marginal VFR   IFR   Intensive IFR   Very Intensive IFR
Visi :
Ceiling :
>= 8 km
>= 3000ft
5 to 8 km
1000 to 3000 ft
1500m to 5 km
500 to 1000 ft
800 to 1500m
200 to 500 ft
< 800m
< 200 ft
Symbols :   Thunderstorms  Fog  Heavy snow  Heavy precipitations  Wind > 20 kt
SIGMETs :     Misc.  Thunderstorms  Icing  Turbulence  Mountain Waves  Volcanic Ashes






- Airport Elevation : 297 ft
- IATA code : UIP


LFRQ - Quimper Pluguffan

CURRENT METAR :
  • 121800Z AUTO 34004KT 9999 FEW033 SCT041 06/03 Q1007 TEMPO 31015G25KT 3000 -SHRA BKN017TCU

EXPIRED METARs :
  • 121730Z AUTO 31005KT 9999 FEW034 07/03 Q1007 NOSIG
  • 121700Z AUTO 32006KT CAVOK 07/03 Q1007 TEMPO 31015G25KT 3000 -SHRA BKN017TCU
  • 121630Z AUTO 30006KT 9999 SCT033 SCT041 08/04 Q1007 TEMPO 31015G25KT 3000 -SHRA BKN017TCU
  • 121600Z AUTO 31003KT 270V340 9999 FEW030 08/04 Q1007 TEMPO 31015G25KT 3000 -SHRA BKN017TCU
  • 121530Z AUTO 33013KT 300V010 9999 BKN031 BKN041 BKN047 09/04 Q1007 TEMPO 31015G25KT 3000 -SHRA BKN017TCU

TAF TAF LFRQ
Valid from the 12 at 18:00 until the 13 at 18:00 UTC


121700Z 1218/1318 31010KT 9999 SCT023 SCT033
TEMPO 1218/1219 31015G25KT 3000 -SHRA BKN017TCU
BECMG 1309/1311 23011KT 3000 RA BKN011
TEMPO 1313/1315 13015G31KT 1300 RA OVC009
BECMG 1315/1318 31013KT 9999 NSW SCT021 SCT031



MET'MAP, your aeronautical weather chart ! - Copyright ORBIFLY December 2007 - Disclaimer

ORBIFLY MET'MAP TEAM :

Programming & Development : Alexandra Zaïnal
Concept & Development : Baudouin d'Aumeries
Co-Development & Prog : Marc-Olivier Méhu
Technical & hardware support : Manuel Goepfert

Contact : metmap@orbifly.com




SOURCES & CREDITS :

   NOAA